createdAt,value
2018-03-21T04:01:18.047Z,99.90
2018-03-21T04:03:46.375Z,99.90
2018-03-21T04:06:15.659Z,99.90
2018-03-21T04:08:43.967Z,99.90
2018-03-21T04:11:14.998Z,99.90
2018-03-21T04:13:43.291Z,99.90
2018-03-21T04:16:12.379Z,99.90
2018-03-21T04:18:40.684Z,99.90
2018-03-21T04:21:08.999Z,99.90
2018-03-21T04:23:37.290Z,99.90
2018-03-21T04:26:05.610Z,99.90
2018-03-21T04:28:33.919Z,99.90
2018-03-21T04:31:02.232Z,99.90
2018-03-21T04:33:30.528Z,99.90
2018-03-21T04:35:59.612Z,99.90
2018-03-21T04:38:27.906Z,99.90
2018-03-21T04:40:56.985Z,99.90
2018-03-21T04:43:25.281Z,99.90
2018-03-21T04:45:54.364Z,99.90
2018-03-21T04:48:22.667Z,99.90
2018-03-21T04:50:51.000Z,99.90
2018-03-21T04:53:23.766Z,99.90
2018-03-21T04:55:52.071Z,99.90
2018-03-21T04:58:27.447Z,99.90
2018-03-21T05:01:05.686Z,99.90
2018-03-21T05:03:33.996Z,99.90
2018-03-21T05:06:03.300Z,99.90
2018-03-21T05:08:38.691Z,99.90
2018-03-21T05:11:07.791Z,99.90
2018-03-21T05:13:36.095Z,99.90
2018-03-21T05:16:04.391Z,99.90
2018-03-21T05:18:32.715Z,99.90
2018-03-21T05:21:01.010Z,99.90
2018-03-21T05:23:29.331Z,99.90
2018-03-21T05:25:57.627Z,99.90
2018-03-21T05:28:26.707Z,99.90
2018-03-21T05:30:55.017Z,99.90
2018-03-21T05:33:23.335Z,99.90
2018-03-21T05:35:53.647Z,99.90
2018-03-21T05:38:21.963Z,99.90
2018-03-21T05:40:51.223Z,99.90
2018-03-21T05:43:19.546Z,99.90
2018-03-21T05:45:48.607Z,99.90
2018-03-21T05:48:16.929Z,99.90
2018-03-21T05:50:47.922Z,99.90
2018-03-21T05:53:18.216Z,99.90
2018-03-21T05:55:46.514Z,99.90
2018-03-21T05:58:16.407Z,99.90
2018-03-21T06:00:45.020Z,99.90
2018-03-21T06:03:14.339Z,99.90
2018-03-21T06:05:42.643Z,99.90
2018-03-21T06:08:11.723Z,99.90
2018-03-21T06:10:40.027Z,99.90
2018-03-21T06:13:08.364Z,99.90
2018-03-21T06:15:36.666Z,99.90
2018-03-21T06:18:05.738Z,99.90
2018-03-21T06:20:34.060Z,99.90
2018-03-21T06:23:02.367Z,99.90
2018-03-21T06:25:30.694Z,99.90
2018-03-21T06:27:59.759Z,99.90
2018-03-21T06:30:28.086Z,99.90
2018-03-21T06:32:56.395Z,99.90
2018-03-21T06:35:24.722Z,99.90
2018-03-21T06:37:53.793Z,99.90
2018-03-21T06:40:22.126Z,99.90
2018-03-21T06:42:50.443Z,99.90
2018-03-21T06:45:18.764Z,99.90
2018-03-21T06:47:47.071Z,99.90
2018-03-21T06:50:15.394Z,99.90
2018-03-21T06:52:43.699Z,99.90
2018-03-21T06:55:12.084Z,99.90
2018-03-21T06:57:41.122Z,99.90
2018-03-21T07:00:09.442Z,99.90
2018-03-21T07:02:37.764Z,99.90
2018-03-21T07:05:10.379Z,99.90
2018-03-21T07:07:38.684Z,99.90
2018-03-21T07:10:06.982Z,99.90
2018-03-21T07:12:35.311Z,99.90
2018-03-21T07:18:05.620Z,99.90
2018-03-21T07:20:34.688Z,99.90
2018-03-21T07:23:03.019Z,99.90
2018-03-21T07:25:31.396Z,99.90
2018-03-21T07:27:59.733Z,99.90
2018-03-21T07:30:29.539Z,99.90
2018-03-21T07:32:57.863Z,99.90
2018-03-21T07:35:26.189Z,99.90
2018-03-21T07:37:54.517Z,99.90
2018-03-21T07:40:22.845Z,99.90
2018-03-21T07:42:51.168Z,99.90
2018-03-21T07:45:19.480Z,99.90
2018-03-21T07:47:47.816Z,99.90
2018-03-21T07:50:16.882Z,99.90
2018-03-21T07:52:45.196Z,99.90
2018-03-21T07:55:13.497Z,99.90
2018-03-21T07:57:41.843Z,99.90
2018-03-21T08:00:10.913Z,99.90
2018-03-21T08:02:39.212Z,99.90
2018-03-21T08:05:08.291Z,99.90
2018-03-21T08:07:36.600Z,99.90
2018-03-21T08:10:04.924Z,99.90
2018-03-21T08:12:33.232Z,99.90
2018-03-21T08:15:01.557Z,99.90
2018-03-21T08:17:29.869Z,99.90
2018-03-21T08:19:58.189Z,99.90
2018-03-21T08:22:26.504Z,99.90
2018-03-21T08:24:54.813Z,99.90
2018-03-21T08:27:23.124Z,99.90
2018-03-21T08:29:51.455Z,99.90
2018-03-21T08:32:19.759Z,99.90
2018-03-21T08:34:48.852Z,99.90
2018-03-21T08:37:17.140Z,99.90
2018-03-21T08:39:46.219Z,99.90
2018-03-21T08:42:15.349Z,99.90
2018-03-21T08:44:44.380Z,99.90
2018-03-21T08:47:12.702Z,99.90
2018-03-21T08:49:41.825Z,99.90
2018-03-21T08:52:10.895Z,99.90
2018-03-21T08:54:39.961Z,99.90
2018-03-21T08:57:08.271Z,99.90
2018-03-21T08:59:37.328Z,99.90
2018-03-21T09:02:05.639Z,99.90
2018-03-21T09:04:34.697Z,99.90
2018-03-21T09:07:03.079Z,99.90
2018-03-21T09:09:31.349Z,99.90
2018-03-21T09:11:59.670Z,99.90
2018-03-21T09:14:27.968Z,99.90
2018-03-21T09:19:30.907Z,99.90
2018-03-21T09:21:59.236Z,99.90
2018-03-21T09:24:27.525Z,99.90
2018-03-21T09:26:55.864Z,99.90
2018-03-21T09:29:24.153Z,99.90
2018-03-21T09:31:53.277Z,99.90
2018-03-21T09:34:22.314Z,98.40
2018-03-21T09:36:50.615Z,98.30
2018-03-21T09:39:19.697Z,95.30
2018-03-21T09:41:47.992Z,95.30
2018-03-21T09:44:17.073Z,99.80
2018-03-21T09:46:46.149Z,95.90
2018-03-21T09:49:14.479Z,96.00
2018-03-21T09:51:42.776Z,99.90
2018-03-21T09:54:11.088Z,96.70
2018-03-21T09:56:39.384Z,93.90
2018-03-21T09:59:08.463Z,91.50
2018-03-21T10:01:36.768Z,91.50
2018-03-21T10:04:05.100Z,79.60
2018-03-21T10:06:33.390Z,82.00
2018-03-21T10:09:01.717Z,75.10
2018-03-21T10:11:30.023Z,75.90
2018-03-21T10:13:58.348Z,82.00
2018-03-21T10:16:27.403Z,75.50
2018-03-21T10:18:55.713Z,76.10
2018-03-21T10:21:24.788Z,80.70
2018-03-21T10:23:53.175Z,80.40
2018-03-21T10:26:21.459Z,74.10
2018-03-21T10:28:49.784Z,74.70
2018-03-21T10:31:18.068Z,82.40
2018-03-21T10:33:46.404Z,72.20
2018-03-21T10:36:15.460Z,81.00
2018-03-21T10:38:43.782Z,80.50
2018-03-21T10:41:12.841Z,63.20
2018-03-21T10:43:41.151Z,63.20
2018-03-21T10:46:10.208Z,66.60
2018-03-21T10:48:38.528Z,66.70
2018-03-21T10:51:07.680Z,71.00
2018-03-21T10:53:36.760Z,65.80
2018-03-21T10:56:05.151Z,65.70
2018-03-21T10:58:33.464Z,74.50
2018-03-21T11:01:02.232Z,65.20
2018-03-21T11:03:30.548Z,68.80
2018-03-21T11:05:59.603Z,66.30
2018-03-21T11:08:27.917Z,66.50
2018-03-21T11:10:56.974Z,60.10
2018-03-21T11:13:25.292Z,59.80
2018-03-21T11:15:54.348Z,66.60
2018-03-21T11:18:22.774Z,66.60
2018-03-21T11:20:51.922Z,63.40
2018-03-21T11:23:20.240Z,63.30
2018-03-21T11:25:49.296Z,56.90
2018-03-21T11:28:17.627Z,56.90
2018-03-21T11:30:45.920Z,59.00
2018-03-21T11:33:14.232Z,59.80
2018-03-21T11:35:42.528Z,57.20
2018-03-21T11:38:10.844Z,54.50
2018-03-21T11:40:39.135Z,53.50
2018-03-21T11:43:07.448Z,52.80
2018-03-21T11:45:35.740Z,49.60
2018-03-21T11:48:04.879Z,53.80
2018-03-21T11:50:33.182Z,53.70
2018-03-21T11:53:01.516Z,50.50
2018-03-21T11:55:29.803Z,56.10
2018-03-21T11:57:58.132Z,53.50
2018-03-21T12:00:26.430Z,55.80
2018-03-21T12:02:55.524Z,50.20
2018-03-21T12:05:24.594Z,52.10
2018-03-21T12:07:52.895Z,52.00
2018-03-21T12:10:21.980Z,48.10
2018-03-21T12:12:50.275Z,48.00
2018-03-21T12:15:19.365Z,49.30
2018-03-21T12:17:48.428Z,47.60
2018-03-21T12:20:16.749Z,47.50
2018-03-21T12:22:45.807Z,46.80
2018-03-21T12:25:15.619Z,47.20
2018-03-21T12:27:43.915Z,47.10
2018-03-21T12:30:12.238Z,47.30
2018-03-21T12:32:40.530Z,48.70
2018-03-21T12:35:08.856Z,45.80
2018-03-21T12:37:37.164Z,47.00
2018-03-21T12:40:05.495Z,45.50
2018-03-21T12:42:33.783Z,47.70
2018-03-21T12:45:02.879Z,50.70
2018-03-21T12:47:31.939Z,49.10
2018-03-21T12:50:00.295Z,49.00
2018-03-21T12:52:28.581Z,45.50
2018-03-21T12:54:56.911Z,44.90
2018-03-21T12:57:25.975Z,48.20
2018-03-21T12:59:54.297Z,48.10
2018-03-21T13:02:22.598Z,43.50
2018-03-21T13:04:50.916Z,49.10
2018-03-21T13:07:19.203Z,47.20
2018-03-21T13:09:47.524Z,47.20
2018-03-21T13:12:15.841Z,46.20
2018-03-21T13:14:44.156Z,45.90
2018-03-21T13:17:13.218Z,47.90
2018-03-21T13:19:41.583Z,47.80
2018-03-21T13:22:09.845Z,48.20
2018-03-21T13:24:38.163Z,45.20
2018-03-21T13:27:06.450Z,48.10
2018-03-21T13:29:35.533Z,40.30
2018-03-21T13:32:03.825Z,40.30
2018-03-21T13:34:32.913Z,37.30
2018-03-21T13:37:01.219Z,37.20
2018-03-21T13:39:29.536Z,42.90
2018-03-21T13:41:57.831Z,35.50
2018-03-21T13:44:26.144Z,36.70
2018-03-21T13:46:54.441Z,35.00
2018-03-21T13:49:23.574Z,38.30
2018-03-21T13:51:51.941Z,38.30
2018-03-21T13:54:20.252Z,36.70
2018-03-21T13:56:48.539Z,30.90
2018-03-21T13:59:17.620Z,36.30
2018-03-21T14:01:45.920Z,36.20
2018-03-21T14:04:15.000Z,37.10
2018-03-21T14:06:44.060Z,38.20
2018-03-21T14:09:12.385Z,38.20
2018-03-21T14:11:41.462Z,39.20
2018-03-21T14:14:09.778Z,39.20
2018-03-21T14:16:38.125Z,41.20
2018-03-21T14:19:07.356Z,40.10
2018-03-21T14:21:35.660Z,40.10
2018-03-21T14:24:03.991Z,39.90
2018-03-21T14:26:32.298Z,38.20
2018-03-21T14:29:00.592Z,39.20
2018-03-21T14:31:28.918Z,36.70
2018-03-21T14:33:57.968Z,34.50
2018-03-21T14:36:26.284Z,34.40
2018-03-21T14:38:55.345Z,33.90
2018-03-21T14:41:23.670Z,33.80
2018-03-21T14:43:52.788Z,35.20
2018-03-21T14:46:21.103Z,35.20
2018-03-21T14:48:49.505Z,34.10
2018-03-21T14:51:17.825Z,36.30
2018-03-21T14:53:46.129Z,34.10
2018-03-21T14:56:14.444Z,37.80
2018-03-21T14:58:43.524Z,33.70
2018-03-21T15:01:11.827Z,33.70
2018-03-21T15:03:40.912Z,34.30
2018-03-21T15:06:09.996Z,34.80
2018-03-21T15:08:38.311Z,34.60
2018-03-21T15:11:06.646Z,35.90
2018-03-21T15:13:34.941Z,33.50
2018-03-21T15:16:04.035Z,36.70
2018-03-21T15:18:33.096Z,35.80
2018-03-21T15:21:01.417Z,35.70
2018-03-21T15:23:30.478Z,36.60
2018-03-21T15:25:58.795Z,36.50
2018-03-21T15:28:27.903Z,36.00
2018-03-21T15:30:56.956Z,36.60
2018-03-21T15:33:25.260Z,36.50
2018-03-21T15:35:54.348Z,34.80
2018-03-21T15:38:23.408Z,35.00
2018-03-21T15:40:51.832Z,34.90
2018-03-21T15:43:20.170Z,35.00
2018-03-21T15:45:48.576Z,36.80
2018-03-21T15:48:16.812Z,38.10
2018-03-21T15:50:45.124Z,40.90
2018-03-21T15:53:14.203Z,42.60
2018-03-21T15:55:42.516Z,41.80
2018-03-21T15:58:11.572Z,40.10
2018-03-21T16:00:39.889Z,40.10
2018-03-21T16:03:08.953Z,44.90
2018-03-21T16:05:38.768Z,44.60
2018-03-21T16:08:07.061Z,44.50
2018-03-21T16:10:36.146Z,43.60
2018-03-21T16:13:05.233Z,43.60
2018-03-21T16:15:33.552Z,43.50
2018-03-21T16:18:01.849Z,44.00
2018-03-21T16:20:30.168Z,43.60
2018-03-21T16:22:58.463Z,44.10
2018-03-21T16:25:27.548Z,44.50
2018-03-21T16:27:56.633Z,45.70
2018-03-21T16:30:24.948Z,45.60
2018-03-21T16:32:53.244Z,45.50
2018-03-21T16:35:21.582Z,46.30
2018-03-21T16:37:50.641Z,49.10
2018-03-21T16:40:18.956Z,49.20
2018-03-21T16:42:48.020Z,49.70
2018-03-21T16:45:16.340Z,49.70
2018-03-21T16:47:45.401Z,49.20
2018-03-21T16:50:13.713Z,49.20
2018-03-21T16:52:42.774Z,50.80
2018-03-21T16:55:11.112Z,50.80
2018-03-21T16:57:39.404Z,51.80
2018-03-21T17:00:07.720Z,51.90
2018-03-21T17:02:36.015Z,52.30
2018-03-21T17:05:05.111Z,55.00
2018-03-21T17:07:34.178Z,55.40
2018-03-21T17:10:02.497Z,55.40
2018-03-21T17:12:30.784Z,56.00
2018-03-21T17:14:59.107Z,59.10
2018-03-21T17:17:27.415Z,59.00
2018-03-21T17:19:56.471Z,58.80
2018-03-21T17:22:24.792Z,58.70
2018-03-21T17:24:53.855Z,62.80
2018-03-21T17:27:23.156Z,62.70
2018-03-21T17:29:51.452Z,62.70
2018-03-21T17:32:20.541Z,67.70
2018-03-21T17:34:48.832Z,67.70
2018-03-21T17:37:17.929Z,67.20
2018-03-21T17:39:46.993Z,66.40
2018-03-21T17:42:15.304Z,66.30
2018-03-21T17:44:44.360Z,70.80
2018-03-21T17:47:12.680Z,71.00
2018-03-21T17:49:41.748Z,74.60
2018-03-21T17:52:10.097Z,74.70
2018-03-21T17:54:38.392Z,81.80
2018-03-21T17:57:06.708Z,84.70
2018-03-21T17:59:35.009Z,82.80
2018-03-21T18:02:03.328Z,88.20
2018-03-21T18:04:31.620Z,92.10
2018-03-21T18:06:59.932Z,96.70
2018-03-21T18:09:28.227Z,94.90
2018-03-21T18:14:57.985Z,99.90
2018-03-21T18:17:26.321Z,99.90
2018-03-21T18:19:54.672Z,99.90
2018-03-21T18:22:23.014Z,99.90
2018-03-21T18:24:52.081Z,99.90
2018-03-21T18:27:20.401Z,99.90
2018-03-21T18:29:48.697Z,99.90
2018-03-21T18:32:17.984Z,99.90
2018-03-21T18:34:46.271Z,99.90
2018-03-21T18:37:15.356Z,99.90
2018-03-21T18:39:43.652Z,99.90
2018-03-21T18:42:12.736Z,99.90
2018-03-21T18:44:41.815Z,99.90
2018-03-21T18:47:10.157Z,99.90
2018-03-21T18:49:38.481Z,99.90
2018-03-21T18:52:06.947Z,99.90
2018-03-21T18:54:35.272Z,99.90
2018-03-21T18:57:03.591Z,99.90
2018-03-21T18:59:31.903Z,99.90
2018-03-21T19:02:00.966Z,99.90
2018-03-21T19:04:29.294Z,99.90
2018-03-21T19:06:57.592Z,99.90
2018-03-21T19:09:25.915Z,99.90
2018-03-21T19:11:54.205Z,99.90
2018-03-21T19:14:23.380Z,99.90
2018-03-21T19:16:51.679Z,99.90
2018-03-21T19:19:20.764Z,99.90
2018-03-21T19:21:49.065Z,99.90
2018-03-21T19:24:18.152Z,99.90
2018-03-21T19:26:47.215Z,99.90
2018-03-21T19:29:15.587Z,99.90
2018-03-21T19:31:43.854Z,99.90
2018-03-21T19:34:12.165Z,99.90
2018-03-21T19:36:41.248Z,99.90
2018-03-21T19:39:09.587Z,99.90
2018-03-21T19:41:37.882Z,99.90
2018-03-21T19:44:06.181Z,99.90
2018-03-21T19:46:34.519Z,99.90
2018-03-21T19:49:02.839Z,99.90
2018-03-21T19:51:31.154Z,99.90
2018-03-21T19:53:59.502Z,99.90
2018-03-21T19:56:27.796Z,99.90
2018-03-21T19:58:56.851Z,99.90
2018-03-21T20:01:25.172Z,99.90
2018-03-21T20:03:54.244Z,99.90
2018-03-21T20:06:22.572Z,99.90
2018-03-21T20:08:50.863Z,99.90
2018-03-21T20:11:19.197Z,99.90
2018-03-21T20:13:48.260Z,99.90
2018-03-21T20:16:16.575Z,99.90
2018-03-21T20:18:45.649Z,99.90
2018-03-21T20:21:13.968Z,99.90
2018-03-21T20:23:42.275Z,99.90
2018-03-21T20:26:10.600Z,99.90
2018-03-21T20:28:39.667Z,99.90
2018-03-21T20:31:08.055Z,99.90
2018-03-21T20:33:36.409Z,99.90
2018-03-21T20:36:05.510Z,99.90
2018-03-21T20:38:33.809Z,99.90
2018-03-21T20:41:02.158Z,99.90
2018-03-21T20:43:30.458Z,99.90
2018-03-21T20:45:58.763Z,99.90
2018-03-21T20:48:27.848Z,99.90
2018-03-21T20:50:56.920Z,99.90
2018-03-21T20:53:25.254Z,99.90
2018-03-21T20:55:53.554Z,99.90
2018-03-21T20:58:21.887Z,99.90
2018-03-21T21:00:50.953Z,99.90
2018-03-21T21:03:19.275Z,99.90
2018-03-21T21:05:47.580Z,99.90
2018-03-21T21:08:15.899Z,99.90
2018-03-21T21:10:44.968Z,99.90
2018-03-21T21:13:13.308Z,99.90
2018-03-21T21:15:41.599Z,99.90
2018-03-21T21:18:09.937Z,99.90
2018-03-21T21:20:38.260Z,99.90
2018-03-21T21:23:06.580Z,99.90
2018-03-21T21:25:34.916Z,99.90
2018-03-21T21:28:03.241Z,99.90
2018-03-21T21:30:32.325Z,99.90
2018-03-21T21:33:00.647Z,99.90
2018-03-21T21:38:26.492Z,99.90
2018-03-21T21:40:54.807Z,99.90
2018-03-21T21:43:23.185Z,99.90
2018-03-21T21:45:51.496Z,99.90
2018-03-21T21:48:20.596Z,99.90
2018-03-21T21:50:49.665Z,99.90
2018-03-21T21:53:18.093Z,99.90
2018-03-21T21:55:46.400Z,99.90
2018-03-21T21:58:14.734Z,99.90
2018-03-21T22:00:43.040Z,99.90
2018-03-21T22:03:11.365Z,99.90
2018-03-21T22:05:39.687Z,99.90
2018-03-21T22:08:07.988Z,99.90
2018-03-21T22:10:36.328Z,99.90
2018-03-21T22:13:04.629Z,99.90
2018-03-21T22:15:32.947Z,99.90
2018-03-21T22:18:01.247Z,99.90
2018-03-21T22:20:30.332Z,99.90
2018-03-21T22:22:59.402Z,99.90
2018-03-21T22:25:27.725Z,99.90
2018-03-21T22:27:56.019Z,99.90
2018-03-21T22:30:24.348Z,99.90
2018-03-21T22:32:53.435Z,99.90
2018-03-21T22:35:21.740Z,99.90
2018-03-21T22:37:50.833Z,99.90
2018-03-21T22:40:19.145Z,99.90
2018-03-21T22:42:47.466Z,99.90
2018-03-21T22:45:15.765Z,99.90
2018-03-21T22:47:44.856Z,99.90
2018-03-21T22:50:13.171Z,99.90
2018-03-21T22:52:41.512Z,99.90
2018-03-21T22:55:10.580Z,99.90
2018-03-21T22:57:38.900Z,99.90
2018-03-21T23:00:07.959Z,99.90
2018-03-21T23:02:36.302Z,99.90
2018-03-21T23:05:04.620Z,99.90
2018-03-21T23:07:32.923Z,99.90
2018-03-21T23:10:01.256Z,99.90
2018-03-21T23:12:29.572Z,99.90
2018-03-21T23:14:58.686Z,99.90
2018-03-21T23:17:27.017Z,99.90
2018-03-21T23:19:55.389Z,99.90
2018-03-21T23:22:23.672Z,99.90
2018-03-21T23:24:52.070Z,99.90
2018-03-21T23:27:20.342Z,99.90
2018-03-21T23:29:48.668Z,99.90
2018-03-21T23:32:16.984Z,99.90
2018-03-21T23:34:45.304Z,99.90
2018-03-21T23:37:13.613Z,99.90
2018-03-21T23:39:41.962Z,99.90
2018-03-21T23:42:11.025Z,99.90
2018-03-21T23:44:39.330Z,99.90
2018-03-21T23:47:08.441Z,99.90
2018-03-21T23:49:36.972Z,99.90
